Decoded Metar for PAQH ( in ) (IATA:) | Meteo·Mobile Aviation Weather
aviador You're here:

PAQH Decoded Metar

in
Report Time2019-01-17 22:56:00
UTC Time2019-01-17 23:43:21
Flight Rules vfr VFR
Wind310° at 10 kt
W.Decomp.*RWY 30: 9.8 kt HW 1.7 kt RCW
W.Rank310° ranks 10
Current wind is above 310° avg. (8.9)
Visibility9999 m
Phenomena:N/A
Clouds:Overcast 041 Hf
Expected CloudBase > 800 ft AGL from Temp-Dew spread
Ceiling4,100 ft
Temp-5°C
Dew Point-7°C (86% RH)
AAT-11.4°C
QNH1007 hPa
Raw Report
PAQH 172256Z AUTO 31010KT 10SM OVC041 M05/M07 A2974 RMK AO2 SLP072
T10501067 FZRANO=

Extra information for PAQH:More info

Social comments